sensor_id;sensor_type;location;lat;lon;timestamp;temperature;humidity
29353;DHT22;16344;50.364;8.944;2023-11-19T00:00:29;7.50;1.00
29353;DHT22;16344;50.364;8.944;2023-11-19T00:02:54;7.60;1.00
29353;DHT22;16344;50.364;8.944;2023-11-19T00:05:20;7.50;1.00
29353;DHT22;16344;50.364;8.944;2023-11-19T00:07:45;7.60;1.00
29353;DHT22;16344;50.364;8.944;2023-11-19T00:10:14;7.60;1.00
29353;DHT22;16344;50.364;8.944;2023-11-19T00:12:44;7.60;1.00
29353;DHT22;16344;50.364;8.944;2023-11-19T00:15:10;7.60;1.00
29353;DHT22;16344;50.364;8.944;2023-11-19T00:17:43;7.70;1.00
29353;DHT22;16344;50.364;8.944;2023-11-19T00:20:18;7.70;1.00
29353;DHT22;16344;50.364;8.944;2023-11-19T00:22:44;7.70;1.00
29353;DHT22;16344;50.364;8.944;2023-11-19T00:25:13;7.70;1.00
29353;DHT22;16344;50.364;8.944;2023-11-19T00:27:38;7.70;1.00
29353;DHT22;16344;50.364;8.944;2023-11-19T00:30:07;7.80;1.00
29353;DHT22;16344;50.364;8.944;2023-11-19T00:32:36;7.80;1.00
29353;DHT22;16344;50.364;8.944;2023-11-19T00:35:03;7.80;1.00
29353;DHT22;16344;50.364;8.944;2023-11-19T00:37:29;7.80;1.00
29353;DHT22;16344;50.364;8.944;2023-11-19T00:39:55;7.90;1.00
29353;DHT22;16344;50.364;8.944;2023-11-19T00:42:21;7.90;1.00
29353;DHT22;16344;50.364;8.944;2023-11-19T00:44:47;7.90;1.00
29353;DHT22;16344;50.364;8.944;2023-11-19T00:47:12;7.90;1.00
29353;DHT22;16344;50.364;8.944;2023-11-19T00:49:38;7.90;1.00
29353;DHT22;16344;50.364;8.944;2023-11-19T00:52:03;7.90;1.00
29353;DHT22;16344;50.364;8.944;2023-11-19T00:54:29;7.90;1.00
29353;DHT22;16344;50.364;8.944;2023-11-19T00:56:54;8.00;1.00
29353;DHT22;16344;50.364;8.944;2023-11-19T00:59:20;8.00;1.00
29353;DHT22;16344;50.364;8.944;2023-11-19T01:01:45;8.00;1.00
29353;DHT22;16344;50.364;8.944;2023-11-19T01:04:13;8.00;1.00
29353;DHT22;16344;50.364;8.944;2023-11-19T01:06:39;8.00;1.00
29353;DHT22;16344;50.364;8.944;2023-11-19T01:09:04;8.10;1.00
29353;DHT22;16344;50.364;8.944;2023-11-19T01:11:29;8.10;1.00
29353;DHT22;16344;50.364;8.944;2023-11-19T01:13:55;8.10;1.00
29353;DHT22;16344;50.364;8.944;2023-11-19T01:16:20;8.10;1.00
29353;DHT22;16344;50.364;8.944;2023-11-19T01:18:47;8.10;1.00
29353;DHT22;16344;50.364;8.944;2023-11-19T01:21:12;8.10;1.00
29353;DHT22;16344;50.364;8.944;2023-11-19T01:23:40;8.10;1.00
29353;DHT22;16344;50.364;8.944;2023-11-19T01:26:05;8.10;1.00
29353;DHT22;16344;50.364;8.944;2023-11-19T01:28:31;8.10;1.00
29353;DHT22;16344;50.364;8.944;2023-11-19T01:30:56;8.20;1.00
29353;DHT22;16344;50.364;8.944;2023-11-19T01:33:22;8.10;1.00
29353;DHT22;16344;50.364;8.944;2023-11-19T01:35:47;8.20;1.00
29353;DHT22;16344;50.364;8.944;2023-11-19T01:38:12;8.20;1.00
29353;DHT22;16344;50.364;8.944;2023-11-19T01:40:38;8.20;1.00
29353;DHT22;16344;50.364;8.944;2023-11-19T01:43:03;8.20;1.00
29353;DHT22;16344;50.364;8.944;2023-11-19T01:45:29;8.20;1.00
29353;DHT22;16344;50.364;8.944;2023-11-19T01:47:58;8.20;1.00
29353;DHT22;16344;50.364;8.944;2023-11-19T01:50:24;8.20;1.00
29353;DHT22;16344;50.364;8.944;2023-11-19T01:52:54;8.30;1.00
29353;DHT22;16344;50.364;8.944;2023-11-19T01:55:23;8.30;1.00
29353;DHT22;16344;50.364;8.944;2023-11-19T01:57:49;8.30;1.00
29353;DHT22;16344;50.364;8.944;2023-11-19T02:00:14;8.30;1.00
29353;DHT22;16344;50.364;8.944;2023-11-19T02:02:41;8.30;1.00
29353;DHT22;16344;50.364;8.944;2023-11-19T02:05:06;8.30;1.00
29353;DHT22;16344;50.364;8.944;2023-11-19T02:07:32;8.30;1.00
29353;DHT22;16344;50.364;8.944;2023-11-19T02:09:57;8.30;1.00
29353;DHT22;16344;50.364;8.944;2023-11-19T02:12:31;8.40;1.00
29353;DHT22;16344;50.364;8.944;2023-11-19T02:14:59;8.30;1.00
29353;DHT22;16344;50.364;8.944;2023-11-19T02:17:25;8.30;1.00
29353;DHT22;16344;50.364;8.944;2023-11-19T02:19:51;8.30;1.00
29353;DHT22;16344;50.364;8.944;2023-11-19T02:22:17;8.40;1.00
29353;DHT22;16344;50.364;8.944;2023-11-19T02:24:42;8.40;1.00
29353;DHT22;16344;50.364;8.944;2023-11-19T02:27:10;8.40;1.00
29353;DHT22;16344;50.364;8.944;2023-11-19T02:29:39;8.40;1.00
29353;DHT22;16344;50.364;8.944;2023-11-19T02:32:04;8.40;1.00
29353;DHT22;16344;50.364;8.944;2023-11-19T02:34:30;8.50;1.00
29353;DHT22;16344;50.364;8.944;2023-11-19T02:36:56;8.50;1.00
29353;DHT22;16344;50.364;8.944;2023-11-19T02:39:21;8.50;1.00
29353;DHT22;16344;50.364;8.944;2023-11-19T02:41:47;8.50;1.00
29353;DHT22;16344;50.364;8.944;2023-11-19T02:44:16;8.50;1.00
29353;DHT22;16344;50.364;8.944;2023-11-19T02:46:41;8.50;1.00
29353;DHT22;16344;50.364;8.944;2023-11-19T02:49:07;8.50;1.00
29353;DHT22;16344;50.364;8.944;2023-11-19T02:51:33;8.60;1.00
29353;DHT22;16344;50.364;8.944;2023-11-19T02:54:00;8.50;1.00
29353;DHT22;16344;50.364;8.944;2023-11-19T02:56:25;8.50;1.00
29353;DHT22;16344;50.364;8.944;2023-11-19T02:58:51;8.50;1.00
29353;DHT22;16344;50.364;8.944;2023-11-19T03:01:23;8.50;1.00
29353;DHT22;16344;50.364;8.944;2023-11-19T03:03:54;8.60;1.00
29353;DHT22;16344;50.364;8.944;2023-11-19T03:06:22;8.50;1.00
29353;DHT22;16344;50.364;8.944;2023-11-19T03:08:47;8.60;1.00
29353;DHT22;16344;50.364;8.944;2023-11-19T03:11:13;8.60;1.00
29353;DHT22;16344;50.364;8.944;2023-11-19T03:13:39;8.60;1.00
29353;DHT22;16344;50.364;8.944;2023-11-19T03:16:04;8.60;1.00
29353;DHT22;16344;50.364;8.944;2023-11-19T03:18:30;8.60;1.00
29353;DHT22;16344;50.364;8.944;2023-11-19T03:20:55;8.60;1.00
29353;DHT22;16344;50.364;8.944;2023-11-19T03:23:21;8.60;1.00
29353;DHT22;16344;50.364;8.944;2023-11-19T03:25:48;8.60;1.00
29353;DHT22;16344;50.364;8.944;2023-11-19T03:28:13;8.60;1.00
29353;DHT22;16344;50.364;8.944;2023-11-19T03:30:39;8.70;1.00
29353;DHT22;16344;50.364;8.944;2023-11-19T03:33:04;8.70;1.00
29353;DHT22;16344;50.364;8.944;2023-11-19T03:35:30;8.70;1.00
29353;DHT22;16344;50.364;8.944;2023-11-19T03:37:55;8.70;1.00
29353;DHT22;16344;50.364;8.944;2023-11-19T03:40:21;8.70;1.00
29353;DHT22;16344;50.364;8.944;2023-11-19T03:42:46;8.80;1.00
29353;DHT22;16344;50.364;8.944;2023-11-19T03:45:12;8.80;1.00
29353;DHT22;16344;50.364;8.944;2023-11-19T03:47:38;8.80;1.00
29353;DHT22;16344;50.364;8.944;2023-11-19T03:50:04;8.90;1.00
29353;DHT22;16344;50.364;8.944;2023-11-19T03:52:30;8.80;1.00
29353;DHT22;16344;50.364;8.944;2023-11-19T03:54:55;8.90;1.00
29353;DHT22;16344;50.364;8.944;2023-11-19T03:57:21;8.90;1.00
29353;DHT22;16344;50.364;8.944;2023-11-19T03:59:47;8.90;1.00
29353;DHT22;16344;50.364;8.944;2023-11-19T04:02:13;8.90;1.00
29353;DHT22;16344;50.364;8.944;2023-11-19T04:04:38;8.90;1.00
29353;DHT22;16344;50.364;8.944;2023-11-19T04:07:04;8.90;1.00
29353;DHT22;16344;50.364;8.944;2023-11-19T04:09:30;8.90;1.00
29353;DHT22;16344;50.364;8.944;2023-11-19T04:11:56;8.90;1.00
29353;DHT22;16344;50.364;8.944;2023-11-19T04:14:22;9.00;1.00
29353;DHT22;16344;50.364;8.944;2023-11-19T04:16:47;9.00;1.00
29353;DHT22;16344;50.364;8.944;2023-11-19T04:19:13;8.90;1.00
29353;DHT22;16344;50.364;8.944;2023-11-19T04:21:41;9.00;1.00
29353;DHT22;16344;50.364;8.944;2023-11-19T04:24:08;9.00;1.00
29353;DHT22;16344;50.364;8.944;2023-11-19T04:26:33;9.00;1.00
29353;DHT22;16344;50.364;8.944;2023-11-19T04:28:59;9.00;1.00
29353;DHT22;16344;50.364;8.944;2023-11-19T04:31:29;9.00;1.00
29353;DHT22;16344;50.364;8.944;2023-11-19T04:33:54;9.00;1.00
29353;DHT22;16344;50.364;8.944;2023-11-19T04:36:20;9.00;1.00
29353;DHT22;16344;50.364;8.944;2023-11-19T04:38:49;9.00;1.00
29353;DHT22;16344;50.364;8.944;2023-11-19T04:41:15;9.00;1.00
29353;DHT22;16344;50.364;8.944;2023-11-19T04:43:40;9.00;1.00
29353;DHT22;16344;50.364;8.944;2023-11-19T04:46:05;9.10;1.00
29353;DHT22;16344;50.364;8.944;2023-11-19T04:48:31;9.10;1.00
29353;DHT22;16344;50.364;8.944;2023-11-19T04:50:56;9.10;1.00
29353;DHT22;16344;50.364;8.944;2023-11-19T04:53:22;9.10;1.00
29353;DHT22;16344;50.364;8.944;2023-11-19T04:55:47;9.10;1.00
29353;DHT22;16344;50.364;8.944;2023-11-19T04:58:13;9.10;1.00
29353;DHT22;16344;50.364;8.944;2023-11-19T05:00:38;9.10;1.00
29353;DHT22;16344;50.364;8.944;2023-11-19T05:03:04;9.20;1.00
29353;DHT22;16344;50.364;8.944;2023-11-19T05:05:29;9.20;1.00
29353;DHT22;16344;50.364;8.944;2023-11-19T05:07:54;9.20;1.00
29353;DHT22;16344;50.364;8.944;2023-11-19T05:10:20;9.20;1.00
29353;DHT22;16344;50.364;8.944;2023-11-19T05:12:46;9.20;1.00
29353;DHT22;16344;50.364;8.944;2023-11-19T05:15:11;9.20;1.00
29353;DHT22;16344;50.364;8.944;2023-11-19T05:17:37;9.20;1.00
29353;DHT22;16344;50.364;8.944;2023-11-19T05:20:04;9.20;1.00
29353;DHT22;16344;50.364;8.944;2023-11-19T05:22:30;9.20;1.00
29353;DHT22;16344;50.364;8.944;2023-11-19T05:24:55;9.30;1.00
29353;DHT22;16344;50.364;8.944;2023-11-19T05:27:21;9.30;1.00
29353;DHT22;16344;50.364;8.944;2023-11-19T05:29:47;9.30;1.00
29353;DHT22;16344;50.364;8.944;2023-11-19T05:32:12;9.30;1.00
29353;DHT22;16344;50.364;8.944;2023-11-19T05:34:38;9.30;1.00
29353;DHT22;16344;50.364;8.944;2023-11-19T05:37:03;9.40;1.00
29353;DHT22;16344;50.364;8.944;2023-11-19T05:39:30;9.30;1.00
29353;DHT22;16344;50.364;8.944;2023-11-19T05:41:56;9.40;1.00
29353;DHT22;16344;50.364;8.944;2023-11-19T05:44:21;9.40;1.00
29353;DHT22;16344;50.364;8.944;2023-11-19T05:46:47;9.40;1.00
29353;DHT22;16344;50.364;8.944;2023-11-19T05:49:12;9.40;1.00
29353;DHT22;16344;50.364;8.944;2023-11-19T05:51:38;9.40;1.00
29353;DHT22;16344;50.364;8.944;2023-11-19T05:54:04;9.50;1.00
29353;DHT22;16344;50.364;8.944;2023-11-19T05:56:32;9.50;1.00
29353;DHT22;16344;50.364;8.944;2023-11-19T05:58:58;9.40;1.00
29353;DHT22;16344;50.364;8.944;2023-11-19T06:01:25;9.40;1.00
29353;DHT22;16344;50.364;8.944;2023-11-19T06:03:51;9.40;1.00
29353;DHT22;16344;50.364;8.944;2023-11-19T06:06:17;9.50;1.00
29353;DHT22;16344;50.364;8.944;2023-11-19T06:08:42;9.50;1.00
29353;DHT22;16344;50.364;8.944;2023-11-19T06:11:09;9.50;1.00
29353;DHT22;16344;50.364;8.944;2023-11-19T06:13:38;9.50;1.00
29353;DHT22;16344;50.364;8.944;2023-11-19T06:16:03;9.50;1.00
29353;DHT22;16344;50.364;8.944;2023-11-19T06:18:29;9.50;1.00
29353;DHT22;16344;50.364;8.944;2023-11-19T06:20:56;9.50;1.00
29353;DHT22;16344;50.364;8.944;2023-11-19T06:23:22;9.60;1.00
29353;DHT22;16344;50.364;8.944;2023-11-19T06:25:47;9.60;1.00
29353;DHT22;16344;50.364;8.944;2023-11-19T06:28:12;9.60;1.00
29353;DHT22;16344;50.364;8.944;2023-11-19T06:30:38;9.60;1.00
29353;DHT22;16344;50.364;8.944;2023-11-19T06:33:04;9.60;1.00
29353;DHT22;16344;50.364;8.944;2023-11-19T06:35:29;9.70;1.00
29353;DHT22;16344;50.364;8.944;2023-11-19T06:38:02;9.60;1.00
29353;DHT22;16344;50.364;8.944;2023-11-19T06:40:28;9.60;1.00
29353;DHT22;16344;50.364;8.944;2023-11-19T06:42:54;9.60;1.00
29353;DHT22;16344;50.364;8.944;2023-11-19T06:45:20;9.70;1.00
29353;DHT22;16344;50.364;8.944;2023-11-19T06:47:45;9.70;1.00
29353;DHT22;16344;50.364;8.944;2023-11-19T06:50:11;9.70;1.00
29353;DHT22;16344;50.364;8.944;2023-11-19T06:52:37;9.70;1.00
29353;DHT22;16344;50.364;8.944;2023-11-19T06:55:03;9.70;1.00
29353;DHT22;16344;50.364;8.944;2023-11-19T06:57:29;9.80;1.00
29353;DHT22;16344;50.364;8.944;2023-11-19T06:59:57;9.80;1.00
29353;DHT22;16344;50.364;8.944;2023-11-19T07:02:22;9.80;1.00
29353;DHT22;16344;50.364;8.944;2023-11-19T07:04:48;9.80;1.00
29353;DHT22;16344;50.364;8.944;2023-11-19T07:07:13;9.80;1.00
29353;DHT22;16344;50.364;8.944;2023-11-19T07:09:40;9.80;1.00
29353;DHT22;16344;50.364;8.944;2023-11-19T07:12:06;9.80;1.00
29353;DHT22;16344;50.364;8.944;2023-11-19T07:14:31;9.80;1.00
29353;DHT22;16344;50.364;8.944;2023-11-19T07:16:57;9.80;1.00
29353;DHT22;16344;50.364;8.944;2023-11-19T07:19:22;9.90;1.00
29353;DHT22;16344;50.364;8.944;2023-11-19T07:21:48;9.90;1.00
29353;DHT22;16344;50.364;8.944;2023-11-19T07:24:13;9.90;1.00
29353;DHT22;16344;50.364;8.944;2023-11-19T07:26:42;9.90;1.00
29353;DHT22;16344;50.364;8.944;2023-11-19T07:29:08;9.90;1.00
29353;DHT22;16344;50.364;8.944;2023-11-19T07:31:34;9.90;1.00
29353;DHT22;16344;50.364;8.944;2023-11-19T07:33:59;10.00;1.00
29353;DHT22;16344;50.364;8.944;2023-11-19T07:36:25;10.10;1.00
29353;DHT22;16344;50.364;8.944;2023-11-19T07:38:50;10.20;1.00
29353;DHT22;16344;50.364;8.944;2023-11-19T07:41:16;10.20;1.00
29353;DHT22;16344;50.364;8.944;2023-11-19T07:43:44;10.30;1.00
29353;DHT22;16344;50.364;8.944;2023-11-19T07:46:12;10.40;1.00
29353;DHT22;16344;50.364;8.944;2023-11-19T07:48:40;10.60;1.00
29353;DHT22;16344;50.364;8.944;2023-11-19T07:51:06;10.70;1.00
29353;DHT22;16344;50.364;8.944;2023-11-19T07:53:31;10.80;1.00
29353;DHT22;16344;50.364;8.944;2023-11-19T07:55:58;10.80;1.00
29353;DHT22;16344;50.364;8.944;2023-11-19T07:58:25;10.90;1.00
29353;DHT22;16344;50.364;8.944;2023-11-19T08:00:51;11.00;1.00
29353;DHT22;16344;50.364;8.944;2023-11-19T08:03:17;11.10;1.00
29353;DHT22;16344;50.364;8.944;2023-11-19T08:05:44;11.20;1.00
29353;DHT22;16344;50.364;8.944;2023-11-19T08:08:10;11.30;1.00
29353;DHT22;16344;50.364;8.944;2023-11-19T08:10:35;11.40;1.00
29353;DHT22;16344;50.364;8.944;2023-11-19T08:13:01;11.60;1.00
29353;DHT22;16344;50.364;8.944;2023-11-19T08:15:26;11.70;1.00
29353;DHT22;16344;50.364;8.944;2023-11-19T08:17:52;11.80;1.00
29353;DHT22;16344;50.364;8.944;2023-11-19T08:20:18;11.90;1.00
29353;DHT22;16344;50.364;8.944;2023-11-19T08:22:44;11.90;1.00
29353;DHT22;16344;50.364;8.944;2023-11-19T08:25:09;11.80;1.00
29353;DHT22;16344;50.364;8.944;2023-11-19T08:27:35;11.70;1.00
29353;DHT22;16344;50.364;8.944;2023-11-19T08:30:00;11.60;1.00
29353;DHT22;16344;50.364;8.944;2023-11-19T08:32:26;11.50;1.00
29353;DHT22;16344;50.364;8.944;2023-11-19T08:34:51;11.40;1.00
29353;DHT22;16344;50.364;8.944;2023-11-19T08:37:17;11.30;1.00
29353;DHT22;16344;50.364;8.944;2023-11-19T08:39:49;11.20;1.00
29353;DHT22;16344;50.364;8.944;2023-11-19T08:42:14;11.20;1.00
29353;DHT22;16344;50.364;8.944;2023-11-19T08:44:40;11.30;1.00
29353;DHT22;16344;50.364;8.944;2023-11-19T08:47:09;11.30;1.00
29353;DHT22;16344;50.364;8.944;2023-11-19T08:49:34;11.30;1.00
29353;DHT22;16344;50.364;8.944;2023-11-19T08:52:00;11.30;1.00
29353;DHT22;16344;50.364;8.944;2023-11-19T08:54:26;11.30;1.00
29353;DHT22;16344;50.364;8.944;2023-11-19T08:56:51;11.40;1.00
29353;DHT22;16344;50.364;8.944;2023-11-19T08:59:17;11.50;1.00
29353;DHT22;16344;50.364;8.944;2023-11-19T09:01:42;11.60;1.00
29353;DHT22;16344;50.364;8.944;2023-11-19T09:04:08;11.80;1.00
29353;DHT22;16344;50.364;8.944;2023-11-19T09:06:35;12.00;1.00
29353;DHT22;16344;50.364;8.944;2023-11-19T09:09:01;12.20;1.00
29353;DHT22;16344;50.364;8.944;2023-11-19T09:11:28;12.50;1.00
29353;DHT22;16344;50.364;8.944;2023-11-19T09:13:53;12.60;1.00
29353;DHT22;16344;50.364;8.944;2023-11-19T09:16:19;12.70;1.00
29353;DHT22;16344;50.364;8.944;2023-11-19T09:18:44;12.80;1.00
29353;DHT22;16344;50.364;8.944;2023-11-19T09:21:10;12.90;1.00
29353;DHT22;16344;50.364;8.944;2023-11-19T09:23:36;12.90;1.00
29353;DHT22;16344;50.364;8.944;2023-11-19T09:26:13;13.00;1.00
29353;DHT22;16344;50.364;8.944;2023-11-19T09:28:38;13.10;1.00
29353;DHT22;16344;50.364;8.944;2023-11-19T09:31:12;13.20;1.00
29353;DHT22;16344;50.364;8.944;2023-11-19T09:33:37;13.30;1.00
29353;DHT22;16344;50.364;8.944;2023-11-19T09:36:03;13.30;1.00
29353;DHT22;16344;50.364;8.944;2023-11-19T09:38:28;13.30;1.00
29353;DHT22;16344;50.364;8.944;2023-11-19T09:40:54;13.40;1.00
29353;DHT22;16344;50.364;8.944;2023-11-19T09:43:19;13.40;1.00
29353;DHT22;16344;50.364;8.944;2023-11-19T09:45:48;13.40;1.00
29353;DHT22;16344;50.364;8.944;2023-11-19T09:48:17;13.60;1.00
29353;DHT22;16344;50.364;8.944;2023-11-19T09:50:46;13.70;1.00
29353;DHT22;16344;50.364;8.944;2023-11-19T09:53:12;13.70;1.00
29353;DHT22;16344;50.364;8.944;2023-11-19T09:55:37;13.80;1.00
29353;DHT22;16344;50.364;8.944;2023-11-19T09:58:03;14.00;1.00
29353;DHT22;16344;50.364;8.944;2023-11-19T10:00:29;14.10;1.00
29353;DHT22;16344;50.364;8.944;2023-11-19T10:02:55;14.30;1.00
29353;DHT22;16344;50.364;8.944;2023-11-19T10:05:22;14.40;1.00
29353;DHT22;16344;50.364;8.944;2023-11-19T10:07:49;14.50;99.90
29353;DHT22;16344;50.364;8.944;2023-11-19T10:10:14;14.50;1.00
29353;DHT22;16344;50.364;8.944;2023-11-19T10:12:44;14.50;1.00
29353;DHT22;16344;50.364;8.944;2023-11-19T10:15:10;14.50;1.00
29353;DHT22;16344;50.364;8.944;2023-11-19T10:17:40;14.50;1.00
29353;DHT22;16344;50.364;8.944;2023-11-19T10:20:06;14.40;1.00
29353;DHT22;16344;50.364;8.944;2023-11-19T10:22:36;14.40;1.00
29353;DHT22;16344;50.364;8.944;2023-11-19T10:25:01;14.50;1.00
29353;DHT22;16344;50.364;8.944;2023-11-19T10:27:27;14.50;99.90
29353;DHT22;16344;50.364;8.944;2023-11-19T10:29:53;14.40;99.90
29353;DHT22;16344;50.364;8.944;2023-11-19T10:32:18;14.40;99.90
29353;DHT22;16344;50.364;8.944;2023-11-19T10:34:43;14.50;99.90
29353;DHT22;16344;50.364;8.944;2023-11-19T10:37:09;14.40;99.90
29353;DHT22;16344;50.364;8.944;2023-11-19T10:39:52;14.40;99.90
29353;DHT22;16344;50.364;8.944;2023-11-19T10:42:21;14.40;99.90
29353;DHT22;16344;50.364;8.944;2023-11-19T10:44:46;14.40;99.90
29353;DHT22;16344;50.364;8.944;2023-11-19T10:47:13;14.40;99.90
29353;DHT22;16344;50.364;8.944;2023-11-19T10:49:39;14.40;99.90
29353;DHT22;16344;50.364;8.944;2023-11-19T10:52:05;14.30;99.90
29353;DHT22;16344;50.364;8.944;2023-11-19T10:54:31;14.30;99.90
29353;DHT22;16344;50.364;8.944;2023-11-19T10:57:01;14.40;99.90
29353;DHT22;16344;50.364;8.944;2023-11-19T10:59:31;14.30;99.90
29353;DHT22;16344;50.364;8.944;2023-11-19T11:01:58;14.30;99.90
29353;DHT22;16344;50.364;8.944;2023-11-19T11:04:25;14.20;75.80
29353;DHT22;16344;50.364;8.944;2023-11-19T11:06:53;14.20;52.60
29353;DHT22;16344;50.364;8.944;2023-11-19T11:09:19;14.10;45.40
29353;DHT22;16344;50.364;8.944;2023-11-19T11:11:48;14.00;43.00
29353;DHT22;16344;50.364;8.944;2023-11-19T11:14:15;13.90;64.90
29353;DHT22;16344;50.364;8.944;2023-11-19T11:16:43;13.90;60.80
29353;DHT22;16344;50.364;8.944;2023-11-19T11:19:09;13.80;59.80
29353;DHT22;16344;50.364;8.944;2023-11-19T11:21:35;13.80;63.50
29353;DHT22;16344;50.364;8.944;2023-11-19T11:24:10;13.80;52.40
29353;DHT22;16344;50.364;8.944;2023-11-19T11:27:01;13.90;64.00
29353;DHT22;16344;50.364;8.944;2023-11-19T11:32:05;13.80;48.60
29353;DHT22;16344;50.364;8.944;2023-11-19T11:37:25;13.70;58.90
29353;DHT22;16344;50.364;8.944;2023-11-19T11:39:53;13.70;56.80
29353;DHT22;16344;50.364;8.944;2023-11-19T11:45:01;13.80;9.60
29353;DHT22;16344;50.364;8.944;2023-11-19T11:50:18;13.80;1.00
29353;DHT22;16344;50.364;8.944;2023-11-19T11:57:50;14.00;1.00
29353;DHT22;16344;50.364;8.944;2023-11-19T12:00:22;14.10;1.00
29353;DHT22;16344;50.364;8.944;2023-11-19T12:02:48;14.30;1.00
29353;DHT22;16344;50.364;8.944;2023-11-19T12:05:14;14.30;1.00
29353;DHT22;16344;50.364;8.944;2023-11-19T12:07:39;14.30;1.00
29353;DHT22;16344;50.364;8.944;2023-11-19T12:10:06;14.20;1.00
29353;DHT22;16344;50.364;8.944;2023-11-19T12:12:37;14.20;1.00
29353;DHT22;16344;50.364;8.944;2023-11-19T12:15:08;14.10;1.00
29353;DHT22;16344;50.364;8.944;2023-11-19T12:17:50;14.00;1.00
29353;DHT22;16344;50.364;8.944;2023-11-19T12:20:17;14.00;1.00
29353;DHT22;16344;50.364;8.944;2023-11-19T12:22:43;13.90;1.00
29353;DHT22;16344;50.364;8.944;2023-11-19T12:25:09;13.80;1.00
29353;DHT22;16344;50.364;8.944;2023-11-19T12:27:35;13.80;1.00
29353;DHT22;16344;50.364;8.944;2023-11-19T12:30:01;13.70;1.00
29353;DHT22;16344;50.364;8.944;2023-11-19T12:32:42;13.70;4.20
29353;DHT22;16344;50.364;8.944;2023-11-19T12:35:08;13.70;5.60
29353;DHT22;16344;50.364;8.944;2023-11-19T12:37:54;13.80;1.00
29353;DHT22;16344;50.364;8.944;2023-11-19T12:40:20;13.80;1.00
29353;DHT22;16344;50.364;8.944;2023-11-19T12:42:46;13.80;1.00
29353;DHT22;16344;50.364;8.944;2023-11-19T12:45:12;13.80;1.00
29353;DHT22;16344;50.364;8.944;2023-11-19T12:47:39;13.70;1.00
29353;DHT22;16344;50.364;8.944;2023-11-19T12:50:05;13.70;1.00
29353;DHT22;16344;50.364;8.944;2023-11-19T12:52:32;13.70;1.00
29353;DHT22;16344;50.364;8.944;2023-11-19T12:54:58;13.80;1.00
29353;DHT22;16344;50.364;8.944;2023-11-19T12:57:39;13.80;1.00
29353;DHT22;16344;50.364;8.944;2023-11-19T13:00:05;13.80;1.00
29353;DHT22;16344;50.364;8.944;2023-11-19T13:02:46;13.80;1.00
29353;DHT22;16344;50.364;8.944;2023-11-19T13:05:26;13.80;1.00
29353;DHT22;16344;50.364;8.944;2023-11-19T13:10:24;13.90;1.00
29353;DHT22;16344;50.364;8.944;2023-11-19T13:13:02;13.90;1.00
29353;DHT22;16344;50.364;8.944;2023-11-19T13:15:28;13.90;1.00
29353;DHT22;16344;50.364;8.944;2023-11-19T13:17:54;13.80;1.00
29353;DHT22;16344;50.364;8.944;2023-11-19T13:20:19;13.80;1.00
29353;DHT22;16344;50.364;8.944;2023-11-19T13:23:02;13.90;1.00
29353;DHT22;16344;50.364;8.944;2023-11-19T13:25:28;13.90;1.00
29353;DHT22;16344;50.364;8.944;2023-11-19T13:27:54;13.90;1.00
29353;DHT22;16344;50.364;8.944;2023-11-19T13:30:19;13.80;1.00
29353;DHT22;16344;50.364;8.944;2023-11-19T13:32:45;13.70;1.00
29353;DHT22;16344;50.364;8.944;2023-11-19T13:35:12;13.70;1.00
29353;DHT22;16344;50.364;8.944;2023-11-19T13:37:38;13.70;1.00
29353;DHT22;16344;50.364;8.944;2023-11-19T13:40:03;13.70;1.00
29353;DHT22;16344;50.364;8.944;2023-11-19T13:42:29;13.60;1.00
29353;DHT22;16344;50.364;8.944;2023-11-19T13:44:54;13.60;1.00
29353;DHT22;16344;50.364;8.944;2023-11-19T13:47:21;13.60;1.00
29353;DHT22;16344;50.364;8.944;2023-11-19T13:49:47;13.60;1.00
29353;DHT22;16344;50.364;8.944;2023-11-19T13:52:12;13.60;1.00
29353;DHT22;16344;50.364;8.944;2023-11-19T13:54:38;13.50;1.00
29353;DHT22;16344;50.364;8.944;2023-11-19T13:57:03;13.50;1.00
29353;DHT22;16344;50.364;8.944;2023-11-19T13:59:30;13.50;1.00
29353;DHT22;16344;50.364;8.944;2023-11-19T14:01:56;13.50;1.00
29353;DHT22;16344;50.364;8.944;2023-11-19T14:04:21;13.50;1.00
29353;DHT22;16344;50.364;8.944;2023-11-19T14:06:47;13.50;1.00
29353;DHT22;16344;50.364;8.944;2023-11-19T14:09:12;13.50;1.00
29353;DHT22;16344;50.364;8.944;2023-11-19T14:11:38;13.40;1.00
29353;DHT22;16344;50.364;8.944;2023-11-19T14:14:03;13.40;1.00
29353;DHT22;16344;50.364;8.944;2023-11-19T14:16:29;13.50;1.00
29353;DHT22;16344;50.364;8.944;2023-11-19T14:18:54;13.40;1.00
29353;DHT22;16344;50.364;8.944;2023-11-19T14:21:20;13.40;1.00
29353;DHT22;16344;50.364;8.944;2023-11-19T14:23:45;13.50;1.00
29353;DHT22;16344;50.364;8.944;2023-11-19T14:26:11;13.40;1.00
29353;DHT22;16344;50.364;8.944;2023-11-19T14:28:37;13.40;1.00
29353;DHT22;16344;50.364;8.944;2023-11-19T14:31:03;13.40;1.00
29353;DHT22;16344;50.364;8.944;2023-11-19T14:33:29;13.40;1.00
29353;DHT22;16344;50.364;8.944;2023-11-19T14:35:54;13.40;1.00
29353;DHT22;16344;50.364;8.944;2023-11-19T14:38:20;13.40;1.00
29353;DHT22;16344;50.364;8.944;2023-11-19T14:40:45;13.40;1.00
29353;DHT22;16344;50.364;8.944;2023-11-19T14:43:11;13.30;1.00
29353;DHT22;16344;50.364;8.944;2023-11-19T14:45:36;13.30;1.00
29353;DHT22;16344;50.364;8.944;2023-11-19T14:48:02;13.30;1.00
29353;DHT22;16344;50.364;8.944;2023-11-19T14:50:27;13.30;1.00
29353;DHT22;16344;50.364;8.944;2023-11-19T14:52:53;13.30;1.00
29353;DHT22;16344;50.364;8.944;2023-11-19T14:55:18;13.30;1.00
29353;DHT22;16344;50.364;8.944;2023-11-19T14:57:44;13.30;1.00
29353;DHT22;16344;50.364;8.944;2023-11-19T15:00:10;13.30;1.00
29353;DHT22;16344;50.364;8.944;2023-11-19T15:02:39;13.40;1.00
29353;DHT22;16344;50.364;8.944;2023-11-19T15:05:04;13.40;1.00
29353;DHT22;16344;50.364;8.944;2023-11-19T15:07:30;13.40;1.00
29353;DHT22;16344;50.364;8.944;2023-11-19T15:09:55;13.40;1.00
29353;DHT22;16344;50.364;8.944;2023-11-19T15:12:21;13.40;1.00
29353;DHT22;16344;50.364;8.944;2023-11-19T15:14:48;13.40;1.00
29353;DHT22;16344;50.364;8.944;2023-11-19T15:17:13;13.40;1.00
29353;DHT22;16344;50.364;8.944;2023-11-19T15:19:38;13.40;1.00
29353;DHT22;16344;50.364;8.944;2023-11-19T15:22:04;13.30;1.00
29353;DHT22;16344;50.364;8.944;2023-11-19T15:24:31;13.30;1.00
29353;DHT22;16344;50.364;8.944;2023-11-19T15:26:56;13.30;1.00
29353;DHT22;16344;50.364;8.944;2023-11-19T15:29:22;13.20;1.00
29353;DHT22;16344;50.364;8.944;2023-11-19T15:31:48;13.20;1.00
29353;DHT22;16344;50.364;8.944;2023-11-19T15:34:13;13.20;1.00
29353;DHT22;16344;50.364;8.944;2023-11-19T15:36:39;13.10;1.00
29353;DHT22;16344;50.364;8.944;2023-11-19T15:39:05;13.10;1.00
29353;DHT22;16344;50.364;8.944;2023-11-19T15:41:30;13.10;1.00
29353;DHT22;16344;50.364;8.944;2023-11-19T15:43:57;13.00;1.00
29353;DHT22;16344;50.364;8.944;2023-11-19T15:46:22;12.90;1.00
29353;DHT22;16344;50.364;8.944;2023-11-19T15:48:48;12.90;1.00
29353;DHT22;16344;50.364;8.944;2023-11-19T15:51:13;12.90;1.00
29353;DHT22;16344;50.364;8.944;2023-11-19T15:53:39;12.90;1.00
29353;DHT22;16344;50.364;8.944;2023-11-19T15:56:04;12.80;1.00
29353;DHT22;16344;50.364;8.944;2023-11-19T15:58:30;12.80;1.00
29353;DHT22;16344;50.364;8.944;2023-11-19T16:00:56;12.80;1.00
29353;DHT22;16344;50.364;8.944;2023-11-19T16:03:21;12.70;1.00
29353;DHT22;16344;50.364;8.944;2023-11-19T16:05:47;12.80;1.00